Terminal Aerodrome Forecast
Issued by NWS Burlington, VT

Home | Current Version | Previous Version | Text Only | Print | Product List | Glossary On
Versions: 1 2 3 4 5 6 7 8 9 10 11 12 13 14 15 16 17 18 19 20
000
FTUS41 KBTV 210534
TAFBTV
TAF
KBTV 210534Z 2106/2206 07003KT 5SM BR OVC003
      TEMPO 2106/2109 2SM BR SCT003 OVC006
     FM210900 VRB03KT 5SM BR OVC008
     FM211200 VRB02KT P6SM BKN020
     FM211800 VRB03KT P6SM SCT025 BKN040
     FM220000 VRB02KT P6SM OVC015=

USA.gov is the U.S. government's official web portal to all federal, state and local government web resources and services.